sensor_id;sensor_type;location;lat;lon;timestamp;pressure;altitude;pressure_sealevel;temperature;humidity
29239;BME280;16267;48.194;11.546;2023-05-16T00:00:00;95580.16;;;12.19;89.89
29239;BME280;16267;48.194;11.546;2023-05-16T00:02:26;95579.41;;;12.18;89.73
29239;BME280;16267;48.194;11.546;2023-05-16T00:04:52;95576.72;;;12.18;89.65
29239;BME280;16267;48.194;11.546;2023-05-16T00:07:18;95577.91;;;12.17;89.59
29239;BME280;16267;48.194;11.546;2023-05-16T00:09:49;95571.41;;;12.15;89.41
29239;BME280;16267;48.194;11.546;2023-05-16T00:12:15;95572.16;;;12.15;89.51
29239;BME280;16267;48.194;11.546;2023-05-16T00:14:42;95574.47;;;12.17;89.57
29239;BME280;16267;48.194;11.546;2023-05-16T00:17:08;95574.47;;;12.17;89.35
29239;BME280;16267;48.194;11.546;2023-05-16T00:19:37;95574.47;;;12.17;89.53
29239;BME280;16267;48.194;11.546;2023-05-16T00:22:06;95571.75;;;12.17;89.25
29239;BME280;16267;48.194;11.546;2023-05-16T00:24:33;95570.22;;;12.16;89.40
29239;BME280;16267;48.194;11.546;2023-05-16T00:27:20;95565.59;;;12.16;89.13
29239;BME280;16267;48.194;11.546;2023-05-16T00:29:46;95566.38;;;12.17;89.30
29239;BME280;16267;48.194;11.546;2023-05-16T00:32:12;95563.69;;;12.17;89.05
29239;BME280;16267;48.194;11.546;2023-05-16T00:34:37;95564.09;;;12.15;89.12
29239;BME280;16267;48.194;11.546;2023-05-16T00:37:03;95560.31;;;12.13;88.50
29239;BME280;16267;48.194;11.546;2023-05-16T00:39:29;95556.13;;;12.12;89.17
29239;BME280;16267;48.194;11.546;2023-05-16T00:42:01;95560.06;;;12.07;87.69
29239;BME280;16267;48.194;11.546;2023-05-16T00:44:27;95561.25;;;12.06;88.90
29239;BME280;16267;48.194;11.546;2023-05-16T00:46:53;95561.25;;;12.06;89.16
29239;BME280;16267;48.194;11.546;2023-05-16T00:49:19;95568.13;;;12.07;89.15
29239;BME280;16267;48.194;11.546;2023-05-16T00:51:46;95564.69;;;12.07;89.20
29239;BME280;16267;48.194;11.546;2023-05-16T00:54:12;95560.50;;;12.05;88.29
29239;BME280;16267;48.194;11.546;2023-05-16T00:56:38;95562.41;;;12.05;88.95
29239;BME280;16267;48.194;11.546;2023-05-16T00:59:09;95555.94;;;12.02;89.32
29239;BME280;16267;48.194;11.546;2023-05-16T01:01:54;95560.91;;;12.04;89.04
29239;BME280;16267;48.194;11.546;2023-05-16T01:04:20;95567.78;;;12.05;89.11
29239;BME280;16267;48.194;11.546;2023-05-16T01:06:46;95571.66;;;12.04;89.10
29239;BME280;16267;48.194;11.546;2023-05-16T01:09:12;95562.84;;;12.03;89.18
29239;BME280;16267;48.194;11.546;2023-05-16T01:12:13;95559.41;;;12.03;89.30
29239;BME280;16267;48.194;11.546;2023-05-16T01:20:37;95558.22;;;12.04;88.96
29239;BME280;16267;48.194;11.546;2023-05-16T01:26:24;95558.97;;;12.04;88.98
29239;BME280;16267;48.194;11.546;2023-05-16T01:28:52;95549.41;;;12.03;89.08
29239;BME280;16267;48.194;11.546;2023-05-16T01:31:20;95546.69;;;12.03;89.14
29239;BME280;16267;48.194;11.546;2023-05-16T01:33:48;95540.97;;;12.01;88.87
29239;BME280;16267;48.194;11.546;2023-05-16T01:36:48;95549.47;;;12.00;88.19
29239;BME280;16267;48.194;11.546;2023-05-16T01:39:35;95547.19;;;11.98;88.79
29239;BME280;16267;48.194;11.546;2023-05-16T01:42:18;95533.00;;;11.98;88.82
29239;BME280;16267;48.194;11.546;2023-05-16T01:44:59;95542.22;;;11.97;89.07
29239;BME280;16267;48.194;11.546;2023-05-16T01:47:29;95533.41;;;11.96;89.37
29239;BME280;16267;48.194;11.546;2023-05-16T01:50:09;95542.66;;;11.95;89.08
29239;BME280;16267;48.194;11.546;2023-05-16T01:53:11;95539.63;;;11.93;88.92
29239;BME280;16267;48.194;11.546;2023-05-16T01:55:51;95536.19;;;11.93;89.41
29239;BME280;16267;48.194;11.546;2023-05-16T01:58:22;95540.81;;;11.92;89.05
29239;BME280;16267;48.194;11.546;2023-05-16T02:01:00;95537.38;;;11.92;89.17
29239;BME280;16267;48.194;11.546;2023-05-16T02:03:27;95531.22;;;11.91;89.38
29239;BME280;16267;48.194;11.546;2023-05-16T02:05:52;95528.97;;;11.90;89.41
29239;BME280;16267;48.194;11.546;2023-05-16T02:08:18;95539.72;;;11.90;89.25
29239;BME280;16267;48.194;11.546;2023-05-16T02:10:44;95532.81;;;11.89;89.09
29239;BME280;16267;48.194;11.546;2023-05-16T02:13:10;95537.13;;;11.86;89.37
29239;BME280;16267;48.194;11.546;2023-05-16T02:15:35;95535.19;;;11.87;89.38
29239;BME280;16267;48.194;11.546;2023-05-16T02:18:01;95542.88;;;11.84;89.79
29239;BME280;16267;48.194;11.546;2023-05-16T02:20:27;95538.69;;;11.83;89.85
29239;BME280;16267;48.194;11.546;2023-05-16T02:22:52;95540.59;;;11.83;89.88
29239;BME280;16267;48.194;11.546;2023-05-16T02:25:23;95545.97;;;11.83;89.72
29239;BME280;16267;48.194;11.546;2023-05-16T02:27:49;95544.47;;;11.82;89.93
29239;BME280;16267;48.194;11.546;2023-05-16T02:30:15;95542.97;;;11.81;89.76
29239;BME280;16267;48.194;11.546;2023-05-16T02:32:41;95540.28;;;11.81;89.85
29239;BME280;16267;48.194;11.546;2023-05-16T02:35:10;95544.88;;;11.80;90.08
29239;BME280;16267;48.194;11.546;2023-05-16T02:37:39;95546.81;;;11.80;89.69
29239;BME280;16267;48.194;11.546;2023-05-16T02:40:05;95543.38;;;11.79;89.51
29239;BME280;16267;48.194;11.546;2023-05-16T02:42:32;95552.19;;;11.80;89.07
29239;BME280;16267;48.194;11.546;2023-05-16T02:44:58;95549.19;;;11.78;89.75
29239;BME280;16267;48.194;11.546;2023-05-16T02:47:24;95549.59;;;11.76;89.81
29239;BME280;16267;48.194;11.546;2023-05-16T02:49:59;95546.91;;;11.76;89.68
29239;BME280;16267;48.194;11.546;2023-05-16T02:52:24;95551.53;;;11.76;89.70
29239;BME280;16267;48.194;11.546;2023-05-16T02:54:50;95547.28;;;11.75;89.93
29239;BME280;16267;48.194;11.546;2023-05-16T02:57:16;95552.69;;;11.75;89.92
29239;BME280;16267;48.194;11.546;2023-05-16T02:59:42;95549.97;;;11.75;90.00
29239;BME280;16267;48.194;11.546;2023-05-16T03:02:08;95548.47;;;11.74;89.76
29239;BME280;16267;48.194;11.546;2023-05-16T03:04:33;95550.41;;;11.73;89.66
29239;BME280;16267;48.194;11.546;2023-05-16T03:06:59;95547.72;;;11.73;89.74
29239;BME280;16267;48.194;11.546;2023-05-16T03:09:25;95547.72;;;11.73;89.87
29239;BME280;16267;48.194;11.546;2023-05-16T03:11:51;95550.41;;;11.73;89.60
29239;BME280;16267;48.194;11.546;2023-05-16T03:14:16;95547.72;;;11.73;89.82
29239;BME280;16267;48.194;11.546;2023-05-16T03:16:42;95546.22;;;11.72;89.69
29239;BME280;16267;48.194;11.546;2023-05-16T03:19:10;95543.53;;;11.72;89.80
29239;BME280;16267;48.194;11.546;2023-05-16T03:21:35;95542.00;;;11.71;89.94
29239;BME280;16267;48.194;11.546;2023-05-16T03:24:02;95546.28;;;11.69;90.09
29239;BME280;16267;48.194;11.546;2023-05-16T03:26:31;95544.34;;;11.69;90.10
29239;BME280;16267;48.194;11.546;2023-05-16T03:28:56;95550.16;;;11.68;90.22
29239;BME280;16267;48.194;11.546;2023-05-16T03:31:23;95544.03;;;11.67;90.28
29239;BME280;16267;48.194;11.546;2023-05-16T03:33:49;95541.75;;;11.66;90.15
29239;BME280;16267;48.194;11.546;2023-05-16T03:36:15;95547.88;;;11.66;90.18
29239;BME280;16267;48.194;11.546;2023-05-16T03:38:41;95541.00;;;11.65;90.31
29239;BME280;16267;48.194;11.546;2023-05-16T03:41:06;95540.25;;;11.65;90.22
29239;BME280;16267;48.194;11.546;2023-05-16T03:43:32;95546.03;;;11.63;90.33
29239;BME280;16267;48.194;11.546;2023-05-16T03:46:01;95544.53;;;11.62;90.32
29239;BME280;16267;48.194;11.546;2023-05-16T03:48:27;95539.53;;;11.60;90.58
29239;BME280;16267;48.194;11.546;2023-05-16T03:50:57;95538.03;;;11.59;90.53
29239;BME280;16267;48.194;11.546;2023-05-16T03:53:22;95541.13;;;11.58;90.42
29239;BME280;16267;48.194;11.546;2023-05-16T03:55:48;95537.28;;;11.59;90.72
29239;BME280;16267;48.194;11.546;2023-05-16T03:58:14;95532.66;;;11.59;90.66
29239;BME280;16267;48.194;11.546;2023-05-16T04:00:40;95538.03;;;11.59;90.51
29239;BME280;16267;48.194;11.546;2023-05-16T04:03:06;95543.41;;;11.59;90.39
29239;BME280;16267;48.194;11.546;2023-05-16T04:05:33;95545.34;;;11.59;90.42
29239;BME280;16267;48.194;11.546;2023-05-16T04:07:58;95538.44;;;11.58;90.06
29239;BME280;16267;48.194;11.546;2023-05-16T04:10:24;95540.72;;;11.59;90.46
29239;BME280;16267;48.194;11.546;2023-05-16T04:13:30;95533.84;;;11.58;90.15
29239;BME280;16267;48.194;11.546;2023-05-16T04:15:55;95531.56;;;11.57;90.16
29239;BME280;16267;48.194;11.546;2023-05-16T04:18:21;95532.75;;;11.56;89.94
29239;BME280;16267;48.194;11.546;2023-05-16T04:20:47;95536.59;;;11.55;90.15
29239;BME280;16267;48.194;11.546;2023-05-16T04:23:13;95542.81;;;11.52;90.20
29239;BME280;16267;48.194;11.546;2023-05-16T04:25:43;95536.69;;;11.51;90.66
29239;BME280;16267;48.194;11.546;2023-05-16T04:28:09;95538.28;;;11.49;90.67
29239;BME280;16267;48.194;11.546;2023-05-16T04:30:35;95545.56;;;11.48;91.17
29239;BME280;16267;48.194;11.546;2023-05-16T04:33:01;95545.56;;;11.48;91.35
29239;BME280;16267;48.194;11.546;2023-05-16T04:35:27;95544.41;;;11.49;91.16
29239;BME280;16267;48.194;11.546;2023-05-16T04:37:53;95541.72;;;11.49;91.21
29239;BME280;16267;48.194;11.546;2023-05-16T04:40:18;95550.53;;;11.50;90.28
29239;BME280;16267;48.194;11.546;2023-05-16T04:42:44;95544.03;;;11.47;90.67
29239;BME280;16267;48.194;11.546;2023-05-16T04:45:10;95548.66;;;11.47;91.05
29239;BME280;16267;48.194;11.546;2023-05-16T04:47:36;95543.28;;;11.47;91.38
29239;BME280;16267;48.194;11.546;2023-05-16T04:50:03;95548.66;;;11.47;91.30
29239;BME280;16267;48.194;11.546;2023-05-16T04:52:29;95547.50;;;11.48;91.49
29239;BME280;16267;48.194;11.546;2023-05-16T04:54:55;95552.47;;;11.49;91.46
29239;BME280;16267;48.194;11.546;2023-05-16T04:57:21;95555.50;;;11.51;91.36
29239;BME280;16267;48.194;11.546;2023-05-16T04:59:46;95550.47;;;11.53;91.40
29239;BME280;16267;48.194;11.546;2023-05-16T05:02:12;95557.34;;;11.54;91.29
29239;BME280;16267;48.194;11.546;2023-05-16T05:04:38;95549.72;;;11.53;90.66
29239;BME280;16267;48.194;11.546;2023-05-16T05:07:04;95553.06;;;11.57;90.90
29239;BME280;16267;48.194;11.546;2023-05-16T05:09:29;95551.13;;;11.57;90.66
29239;BME280;16267;48.194;11.546;2023-05-16T05:11:55;95552.97;;;11.60;91.07
29239;BME280;16267;48.194;11.546;2023-05-16T05:14:21;95551.41;;;11.63;91.01
29239;BME280;16267;48.194;11.546;2023-05-16T05:16:46;95557.13;;;11.65;91.12
29239;BME280;16267;48.194;11.546;2023-05-16T05:19:12;95561.31;;;11.66;90.60
29239;BME280;16267;48.194;11.546;2023-05-16T05:21:38;95553.25;;;11.66;90.63
29239;BME280;16267;48.194;11.546;2023-05-16T05:24:04;95560.16;;;11.67;90.59
29239;BME280;16267;48.194;11.546;2023-05-16T05:26:30;95560.22;;;11.64;90.68
29239;BME280;16267;48.194;11.546;2023-05-16T05:28:56;95561.00;;;11.64;91.29
29239;BME280;16267;48.194;11.546;2023-05-16T05:31:21;95557.13;;;11.65;91.63
29239;BME280;16267;48.194;11.546;2023-05-16T05:33:47;95556.38;;;11.65;91.34
29239;BME280;16267;48.194;11.546;2023-05-16T05:36:13;95547.56;;;11.64;91.08
29239;BME280;16267;48.194;11.546;2023-05-16T05:38:38;95547.56;;;11.64;91.06
29239;BME280;16267;48.194;11.546;2023-05-16T05:41:04;95551.75;;;11.65;91.40
29239;BME280;16267;48.194;11.546;2023-05-16T05:43:31;95548.72;;;11.63;91.09
29239;BME280;16267;48.194;11.546;2023-05-16T05:45:57;95546.03;;;11.63;90.59
29239;BME280;16267;48.194;11.546;2023-05-16T05:48:23;95541.75;;;11.66;91.33
29239;BME280;16267;48.194;11.546;2023-05-16T05:50:49;95549.81;;;11.66;91.39
29239;BME280;16267;48.194;11.546;2023-05-16T05:53:15;95547.56;;;11.64;90.79
29239;BME280;16267;48.194;11.546;2023-05-16T05:55:40;95549.41;;;11.67;91.06
29239;BME280;16267;48.194;11.546;2023-05-16T05:58:06;95537.56;;;11.65;91.25
29239;BME280;16267;48.194;11.546;2023-05-16T06:00:32;95542.50;;;11.66;91.61
29239;BME280;16267;48.194;11.546;2023-05-16T06:02:58;95551.66;;;11.69;91.33
29239;BME280;16267;48.194;11.546;2023-05-16T06:05:24;95543.59;;;11.69;91.06
29239;BME280;16267;48.194;11.546;2023-05-16T06:07:50;95544.69;;;11.71;91.38
29239;BME280;16267;48.194;11.546;2023-05-16T06:10:15;95541.16;;;11.74;91.72
29239;BME280;16267;48.194;11.546;2023-05-16T06:12:41;95543.81;;;11.78;91.53
29239;BME280;16267;48.194;11.546;2023-05-16T06:15:08;95539.84;;;11.82;91.83
29239;BME280;16267;48.194;11.546;2023-05-16T06:17:34;95540.59;;;11.83;91.13
29239;BME280;16267;48.194;11.546;2023-05-16T06:20:00;95537.13;;;11.86;91.51
29239;BME280;16267;48.194;11.546;2023-05-16T06:22:26;95539.72;;;11.90;91.14
29239;BME280;16267;48.194;11.546;2023-05-16T06:24:52;95536.53;;;11.95;91.34
29239;BME280;16267;48.194;11.546;2023-05-16T06:27:18;95539.88;;;11.99;91.39
29239;BME280;16267;48.194;11.546;2023-05-16T06:29:43;95544.00;;;12.03;91.64
29239;BME280;16267;48.194;11.546;2023-05-16T06:32:09;95547.38;;;12.08;90.86
29239;BME280;16267;48.194;11.546;2023-05-16T06:34:35;95540.81;;;12.09;90.64
29239;BME280;16267;48.194;11.546;2023-05-16T06:37:01;95538.13;;;12.09;89.81
29239;BME280;16267;48.194;11.546;2023-05-16T06:39:28;95543.06;;;12.10;90.41
29239;BME280;16267;48.194;11.546;2023-05-16T06:41:53;95541.91;;;12.11;89.21
29239;BME280;16267;48.194;11.546;2023-05-16T06:44:21;95537.53;;;12.17;90.72
29239;BME280;16267;48.194;11.546;2023-05-16T06:46:47;95541.66;;;12.22;90.84
29239;BME280;16267;48.194;11.546;2023-05-16T06:49:13;95542.31;;;12.26;90.40
29239;BME280;16267;48.194;11.546;2023-05-16T06:51:39;95541.47;;;12.29;89.50
29239;BME280;16267;48.194;11.546;2023-05-16T06:54:05;95545.28;;;12.32;89.66
29239;BME280;16267;48.194;11.546;2023-05-16T06:56:31;95557.28;;;12.27;90.19
29239;BME280;16267;48.194;11.546;2023-05-16T06:58:57;95554.69;;;12.23;90.00
29239;BME280;16267;48.194;11.546;2023-05-16T07:01:23;95546.53;;;12.27;90.06
29239;BME280;16267;48.194;11.546;2023-05-16T07:03:48;95550.41;;;12.26;90.12
29239;BME280;16267;48.194;11.546;2023-05-16T07:06:14;95551.50;;;12.28;89.92
29239;BME280;16267;48.194;11.546;2023-05-16T07:08:40;95540.63;;;12.32;90.27
29239;BME280;16267;48.194;11.546;2023-05-16T07:11:06;95549.06;;;12.34;90.11
29239;BME280;16267;48.194;11.546;2023-05-16T07:13:32;95541.72;;;12.35;89.73
29239;BME280;16267;48.194;11.546;2023-05-16T07:15:57;95542.47;;;12.35;89.47
29239;BME280;16267;48.194;11.546;2023-05-16T07:18:23;95542.06;;;12.37;89.97
29239;BME280;16267;48.194;11.546;2023-05-16T07:20:49;95546.25;;;12.38;90.68
29239;BME280;16267;48.194;11.546;2023-05-16T07:23:15;95541.31;;;12.36;90.03
29239;BME280;16267;48.194;11.546;2023-05-16T07:25:41;95542.06;;;12.37;90.60
29239;BME280;16267;48.194;11.546;2023-05-16T07:28:06;95547.03;;;12.38;91.23
29239;BME280;16267;48.194;11.546;2023-05-16T07:30:32;95538.09;;;12.41;91.37
29239;BME280;16267;48.194;11.546;2023-05-16T07:32:59;95535.75;;;12.43;90.84
29239;BME280;16267;48.194;11.546;2023-05-16T07:35:24;95539.97;;;12.44;90.73
29239;BME280;16267;48.194;11.546;2023-05-16T07:37:51;95544.16;;;12.45;90.43
29239;BME280;16267;48.194;11.546;2023-05-16T07:40:17;95555.28;;;12.47;90.65
29239;BME280;16267;48.194;11.546;2023-05-16T07:42:45;95552.25;;;12.45;90.21
29239;BME280;16267;48.194;11.546;2023-05-16T07:45:10;95563.00;;;12.45;90.26
29239;BME280;16267;48.194;11.546;2023-05-16T07:47:36;95560.31;;;12.45;90.51
29239;BME280;16267;48.194;11.546;2023-05-16T07:50:02;95561.06;;;12.46;90.58
29239;BME280;16267;48.194;11.546;2023-05-16T07:52:28;95571.06;;;12.45;90.59
29239;BME280;16267;48.194;11.546;2023-05-16T07:54:54;95571.81;;;12.46;90.63
29239;BME280;16267;48.194;11.546;2023-05-16T07:57:20;95577.22;;;12.46;90.28
29239;BME280;16267;48.194;11.546;2023-05-16T07:59:46;95569.13;;;12.46;90.60
29239;BME280;16267;48.194;11.546;2023-05-16T08:02:11;95573.03;;;12.45;90.81
29239;BME280;16267;48.194;11.546;2023-05-16T08:04:37;95575.38;;;12.43;90.72
29239;BME280;16267;48.194;11.546;2023-05-16T08:07:03;95580.75;;;12.43;90.75
29239;BME280;16267;48.194;11.546;2023-05-16T08:09:29;95577.72;;;12.41;90.77
29239;BME280;16267;48.194;11.546;2023-05-16T08:11:54;95573.09;;;12.41;91.29
29239;BME280;16267;48.194;11.546;2023-05-16T08:14:20;95580.41;;;12.41;91.51
29239;BME280;16267;48.194;11.546;2023-05-16T08:16:46;95584.28;;;12.40;91.50
29239;BME280;16267;48.194;11.546;2023-05-16T08:19:12;95594.31;;;12.39;92.63
29239;BME280;16267;48.194;11.546;2023-05-16T08:21:38;95585.47;;;12.39;92.76
29239;BME280;16267;48.194;11.546;2023-05-16T08:24:04;95593.97;;;12.37;92.32
29239;BME280;16267;48.194;11.546;2023-05-16T08:26:31;95591.25;;;12.37;92.24
29239;BME280;16267;48.194;11.546;2023-05-16T08:28:57;95578.22;;;12.36;92.37
29239;BME280;16267;48.194;11.546;2023-05-16T08:31:23;95585.53;;;12.35;92.20
29239;BME280;16267;48.194;11.546;2023-05-16T08:33:48;95592.88;;;12.35;92.07
29239;BME280;16267;48.194;11.546;2023-05-16T08:36:14;95590.16;;;12.35;92.96
29239;BME280;16267;48.194;11.546;2023-05-16T08:38:40;95577.47;;;12.35;93.76
29239;BME280;16267;48.194;11.546;2023-05-16T08:41:06;95593.63;;;12.35;94.14
29239;BME280;16267;48.194;11.546;2023-05-16T08:43:32;95587.81;;;12.37;93.64
29239;BME280;16267;48.194;11.546;2023-05-16T08:45:59;95593.22;;;12.37;93.42
29239;BME280;16267;48.194;11.546;2023-05-16T08:48:27;95595.47;;;12.38;94.11
29239;BME280;16267;48.194;11.546;2023-05-16T08:50:53;95590.06;;;12.38;93.78
29239;BME280;16267;48.194;11.546;2023-05-16T08:53:30;95580.84;;;12.39;94.13
29239;BME280;16267;48.194;11.546;2023-05-16T08:55:59;95586.13;;;12.43;95.88
29239;BME280;16267;48.194;11.546;2023-05-16T08:58:25;95591.09;;;12.44;97.75
29239;BME280;16267;48.194;11.546;2023-05-16T09:00:52;95588.31;;;12.48;99.11
29239;BME280;16267;48.194;11.546;2023-05-16T09:03:18;95587.47;;;12.51;99.81
29239;BME280;16267;48.194;11.546;2023-05-16T09:05:46;95587.47;;;12.51;100.00
29239;BME280;16267;48.194;11.546;2023-05-16T09:08:12;95585.13;;;12.53;99.99
29239;BME280;16267;48.194;11.546;2023-05-16T09:10:37;95586.22;;;12.56;100.00
29239;BME280;16267;48.194;11.546;2023-05-16T09:13:03;95580.00;;;12.59;99.50
29239;BME280;16267;48.194;11.546;2023-05-16T09:15:33;95576.00;;;12.63;99.29
29239;BME280;16267;48.194;11.546;2023-05-16T09:18:02;95576.69;;;12.67;98.85
29239;BME280;16267;48.194;11.546;2023-05-16T09:20:29;95571.97;;;12.71;98.89
29239;BME280;16267;48.194;11.546;2023-05-16T09:22:59;95572.63;;;12.76;98.52
29239;BME280;16267;48.194;11.546;2023-05-16T09:25:27;95574.03;;;12.80;97.93
29239;BME280;16267;48.194;11.546;2023-05-16T09:27:59;95569.00;;;12.82;98.05
29239;BME280;16267;48.194;11.546;2023-05-16T09:30:33;95565.03;;;12.87;97.97
29239;BME280;16267;48.194;11.546;2023-05-16T09:32:59;95575.31;;;12.92;99.08
29239;BME280;16267;48.194;11.546;2023-05-16T09:35:25;95572.41;;;12.99;99.28
29239;BME280;16267;48.194;11.546;2023-05-16T09:37:51;95583.00;;;13.06;100.00
29239;BME280;16267;48.194;11.546;2023-05-16T09:40:22;95579.78;;;13.11;100.00
29239;BME280;16267;48.194;11.546;2023-05-16T09:43:04;95571.50;;;13.18;100.00
29239;BME280;16267;48.194;11.546;2023-05-16T09:45:32;95576.81;;;13.22;99.44
29239;BME280;16267;48.194;11.546;2023-05-16T09:48:05;95577.06;;;13.28;99.24
29239;BME280;16267;48.194;11.546;2023-05-16T09:50:36;95578.56;;;13.29;98.56
29239;BME280;16267;48.194;11.546;2023-05-16T09:53:02;95580.53;;;13.28;97.33
29239;BME280;16267;48.194;11.546;2023-05-16T09:55:30;95575.88;;;13.29;97.03
29239;BME280;16267;48.194;11.546;2023-05-16T09:57:56;95575.13;;;13.28;97.12
29239;BME280;16267;48.194;11.546;2023-05-16T10:00:21;95581.25;;;13.29;97.08
29239;BME280;16267;48.194;11.546;2023-05-16T10:02:56;95576.28;;;13.27;97.09
29239;BME280;16267;48.194;11.546;2023-05-16T10:05:25;95580.19;;;13.26;97.20
29239;BME280;16267;48.194;11.546;2023-05-16T10:07:55;95587.50;;;13.26;97.47
29239;BME280;16267;48.194;11.546;2023-05-16T10:10:23;95582.94;;;13.23;96.45
29239;BME280;16267;48.194;11.546;2023-05-16T10:12:53;95586.06;;;13.21;96.50
29239;BME280;16267;48.194;11.546;2023-05-16T10:15:23;95575.72;;;13.20;96.29
29239;BME280;16267;48.194;11.546;2023-05-16T10:17:50;95583.88;;;13.16;97.03
29239;BME280;16267;48.194;11.546;2023-05-16T10:20:18;95584.31;;;13.14;96.57
29239;BME280;16267;48.194;11.546;2023-05-16T10:22:45;95595.50;;;13.13;96.70
29239;BME280;16267;48.194;11.546;2023-05-16T10:25:39;95599.81;;;13.10;96.56
29239;BME280;16267;48.194;11.546;2023-05-16T10:28:07;95600.25;;;13.09;95.81
29239;BME280;16267;48.194;11.546;2023-05-16T10:30:33;95596.03;;;13.08;95.35
29239;BME280;16267;48.194;11.546;2023-05-16T10:33:01;95599.91;;;13.07;94.98
29239;BME280;16267;48.194;11.546;2023-05-16T10:35:30;95604.97;;;13.05;95.21
29239;BME280;16267;48.194;11.546;2023-05-16T10:37:57;95610.34;;;13.05;94.95
29239;BME280;16267;48.194;11.546;2023-05-16T10:40:23;95606.91;;;13.04;96.40
29239;BME280;16267;48.194;11.546;2023-05-16T10:43:05;95597.00;;;13.01;96.68
29239;BME280;16267;48.194;11.546;2023-05-16T10:45:31;95596.56;;;13.03;98.68
29239;BME280;16267;48.194;11.546;2023-05-16T10:48:03;95600.09;;;13.00;98.30
29239;BME280;16267;48.194;11.546;2023-05-16T10:50:38;95595.91;;;12.99;99.27
29239;BME280;16267;48.194;11.546;2023-05-16T10:53:34;95599.78;;;12.98;99.37
29239;BME280;16267;48.194;11.546;2023-05-16T10:58:39;95599.78;;;12.98;99.50
29239;BME280;16267;48.194;11.546;2023-05-16T11:09:19;95599.03;;;12.97;100.00
29239;BME280;16267;48.194;11.546;2023-05-16T11:17:21;95596.75;;;12.95;100.00
29239;BME280;16267;48.194;11.546;2023-05-16T11:19:55;95591.78;;;12.94;100.00
29239;BME280;16267;48.194;11.546;2023-05-16T11:22:32;95594.47;;;12.94;100.00
29239;BME280;16267;48.194;11.546;2023-05-16T11:25:02;95596.75;;;12.95;100.00
29239;BME280;16267;48.194;11.546;2023-05-16T11:27:36;95593.66;;;12.97;100.00
29239;BME280;16267;48.194;11.546;2023-05-16T11:32:37;95592.88;;;12.97;100.00
29239;BME280;16267;48.194;11.546;2023-05-16T11:35:05;95595.91;;;12.99;100.00
29239;BME280;16267;48.194;11.546;2023-05-16T11:37:33;95585.03;;;13.02;100.00
29239;BME280;16267;48.194;11.546;2023-05-16T11:40:02;95585.25;;;13.08;100.00
29239;BME280;16267;48.194;11.546;2023-05-16T11:42:46;95588.63;;;13.12;100.00
29239;BME280;16267;48.194;11.546;2023-05-16T11:45:18;95586.16;;;13.17;100.00
29239;BME280;16267;48.194;11.546;2023-05-16T11:47:45;95585.66;;;13.23;100.00
29239;BME280;16267;48.194;11.546;2023-05-16T11:50:20;95592.38;;;13.31;100.00
29239;BME280;16267;48.194;11.546;2023-05-16T11:52:49;95592.16;;;13.38;100.00
29239;BME280;16267;48.194;11.546;2023-05-16T11:55:20;95580.75;;;13.47;100.00
29239;BME280;16267;48.194;11.546;2023-05-16T11:57:50;95578.22;;;13.56;100.00
29239;BME280;16267;48.194;11.546;2023-05-16T12:00:18;95579.81;;;13.66;100.00
29239;BME280;16267;48.194;11.546;2023-05-16T12:02:45;95578.53;;;13.71;100.00
29239;BME280;16267;48.194;11.546;2023-05-16T12:05:15;95576.19;;;13.73;100.00
29239;BME280;16267;48.194;11.546;2023-05-16T12:07:43;95570.66;;;13.76;100.00
29239;BME280;16267;48.194;11.546;2023-05-16T12:10:11;95569.06;;;13.79;100.00
29239;BME280;16267;48.194;11.546;2023-05-16T12:12:41;95575.19;;;13.79;100.00
29239;BME280;16267;48.194;11.546;2023-05-16T12:15:08;95574.34;;;13.82;100.00
29239;BME280;16267;48.194;11.546;2023-05-16T12:17:35;95572.72;;;13.85;100.00
29239;BME280;16267;48.194;11.546;2023-05-16T12:20:03;95571.84;;;13.88;100.00
29239;BME280;16267;48.194;11.546;2023-05-16T12:22:42;95565.63;;;13.91;100.00
29239;BME280;16267;48.194;11.546;2023-05-16T12:25:30;95563.75;;;13.88;100.00
29239;BME280;16267;48.194;11.546;2023-05-16T12:28:02;95564.75;;;13.94;100.00
29239;BME280;16267;48.194;11.546;2023-05-16T12:30:31;95562.69;;;13.98;100.00
29239;BME280;16267;48.194;11.546;2023-05-16T12:33:07;95568.53;;;13.97;100.00
29239;BME280;16267;48.194;11.546;2023-05-16T12:35:36;95573.50;;;13.98;100.00
29239;BME280;16267;48.194;11.546;2023-05-16T12:38:11;95562.56;;;14.02;100.00
29239;BME280;16267;48.194;11.546;2023-05-16T12:40:39;95564.44;;;14.05;100.00
29239;BME280;16267;48.194;11.546;2023-05-16T12:43:18;95563.56;;;14.08;100.00
29239;BME280;16267;48.194;11.546;2023-05-16T12:45:53;95556.56;;;14.11;100.00
29239;BME280;16267;48.194;11.546;2023-05-16T12:48:20;95558.38;;;14.14;100.00
29239;BME280;16267;48.194;11.546;2023-05-16T12:50:46;95563.22;;;14.19;100.00
29239;BME280;16267;48.194;11.546;2023-05-16T12:53:15;95551.88;;;14.24;100.00
29239;BME280;16267;48.194;11.546;2023-05-16T12:55:43;95559.44;;;14.29;100.00
29239;BME280;16267;48.194;11.546;2023-05-16T12:58:10;95554.69;;;14.33;100.00
29239;BME280;16267;48.194;11.546;2023-05-16T13:00:36;95553.81;;;14.36;100.00
29239;BME280;16267;48.194;11.546;2023-05-16T13:03:04;95558.34;;;14.39;100.00
29239;BME280;16267;48.194;11.546;2023-05-16T13:05:30;95553.28;;;14.41;100.00
29239;BME280;16267;48.194;11.546;2023-05-16T13:07:56;95552.81;;;14.43;100.00
29239;BME280;16267;48.194;11.546;2023-05-16T13:10:22;95558.22;;;14.43;100.00
29239;BME280;16267;48.194;11.546;2023-05-16T13:12:50;95558.97;;;14.43;100.00
29239;BME280;16267;48.194;11.546;2023-05-16T13:15:15;95554.78;;;14.42;100.00
29239;BME280;16267;48.194;11.546;2023-05-16T13:17:42;95549.78;;;14.41;100.00
29239;BME280;16267;48.194;11.546;2023-05-16T13:20:09;95571.84;;;14.39;100.00